createdAt,value
2018-01-04T12:42:47.922Z,56.25
2018-01-04T12:43:48.324Z,50.63
2018-01-04T12:45:43.852Z,33.75
2018-01-04T12:46:44.285Z,45.00
2018-01-04T12:48:38.895Z,56.25
2018-01-04T12:49:39.310Z,50.63
2018-01-04T12:51:33.859Z,39.38
2018-01-04T12:52:34.288Z,28.13
2018-01-04T12:53:34.707Z,33.75
2018-01-04T12:54:35.132Z,39.38
2018-01-04T12:55:35.554Z,50.63
2018-01-04T12:56:35.980Z,61.88
2018-01-04T12:57:36.401Z,61.88
2018-01-04T12:58:36.829Z,56.25
2018-01-04T12:59:37.257Z,50.63
2018-01-04T13:00:37.679Z,45.00
2018-01-04T13:01:38.149Z,45.00
2018-01-04T13:02:38.526Z,56.25
2018-01-04T13:03:38.953Z,50.63
2018-01-04T13:04:39.375Z,56.25
2018-01-04T13:05:39.793Z,45.00
2018-01-04T13:06:40.248Z,39.38
2018-01-04T13:07:40.639Z,33.75
2018-01-04T13:08:41.072Z,33.75
2018-01-04T13:09:41.493Z,28.13
2018-01-04T13:10:41.912Z,28.13
2018-01-04T13:11:42.337Z,33.75
2018-01-04T13:12:42.771Z,39.38
2018-01-04T13:13:43.186Z,45.00
2018-01-04T13:14:43.612Z,39.38
2018-01-04T13:15:44.035Z,33.75
2018-01-04T13:16:44.468Z,28.13
2018-01-04T13:17:44.885Z,28.13
2018-01-04T13:18:45.319Z,28.13
2018-01-04T13:19:45.733Z,28.13
2018-01-04T13:20:46.158Z,28.13
2018-01-04T13:21:46.578Z,22.50
2018-01-04T13:24:20.233Z,28.13
2018-01-04T13:25:20.550Z,28.13
2018-01-04T13:27:15.128Z,50.63
2018-01-04T13:28:15.549Z,50.63
2018-01-04T13:30:50.113Z,56.25
2018-01-04T13:31:50.514Z,61.88
2018-01-04T13:33:45.103Z,56.25
2018-01-04T13:34:45.518Z,56.25
2018-01-04T13:36:40.116Z,61.88
2018-01-04T13:37:40.528Z,56.25
2018-01-04T13:39:35.134Z,50.63
2018-01-04T13:40:35.556Z,50.63
2018-01-04T13:41:35.972Z,50.63
2018-01-04T13:42:36.398Z,50.63
2018-01-04T13:43:36.817Z,39.38
2018-01-04T13:44:37.250Z,39.38
2018-01-04T13:45:37.669Z,33.75
2018-01-04T13:46:38.122Z,33.75
2018-01-04T13:47:38.538Z,33.75
2018-01-04T13:48:38.944Z,33.75
2018-01-04T13:49:39.366Z,33.75
2018-01-04T13:50:39.805Z,33.75
2018-01-04T13:51:40.215Z,33.75
2018-01-04T13:52:40.652Z,33.75
2018-01-04T13:53:41.060Z,39.38
2018-01-04T13:54:41.488Z,33.75
2018-01-04T13:55:41.914Z,33.75
2018-01-04T13:56:42.338Z,28.13
2018-01-04T13:57:42.760Z,28.13
2018-01-04T13:58:43.188Z,28.13
2018-01-04T13:59:43.611Z,28.13
2018-01-04T14:00:44.040Z,39.38
2018-01-04T14:01:44.462Z,45.00
2018-01-04T14:02:44.882Z,45.00
2018-01-04T14:03:45.303Z,45.00
2018-01-04T14:04:45.759Z,39.38
2018-01-04T14:05:46.159Z,39.38
2018-01-04T14:06:46.630Z,33.75
2018-01-04T14:07:47.025Z,33.75
2018-01-04T14:08:47.428Z,39.38
2018-01-04T14:09:47.857Z,39.38
2018-01-04T14:10:48.275Z,39.38
2018-01-04T14:11:48.709Z,39.38
2018-01-04T14:12:49.150Z,39.38
2018-01-04T14:13:49.558Z,39.38
2018-01-04T14:14:49.976Z,39.38
2018-01-04T14:15:50.401Z,39.38
2018-01-04T14:16:50.822Z,39.38
2018-01-04T14:17:51.246Z,39.38
2018-01-04T14:18:51.671Z,33.75
2018-01-04T14:19:52.097Z,33.75
2018-01-04T14:20:52.516Z,33.75
2018-01-04T14:21:52.983Z,33.75
2018-01-04T14:22:53.372Z,33.75
2018-01-04T14:23:53.794Z,28.13
2018-01-04T14:24:54.322Z,28.13
2018-01-04T14:25:54.640Z,28.13
2018-01-04T14:26:55.067Z,22.50
2018-01-04T14:27:55.494Z,22.50
2018-01-04T14:33:11.859Z,16.88
2018-01-04T14:34:12.285Z,16.88
2018-01-04T14:36:06.877Z,16.88
2018-01-04T14:37:07.280Z,16.88
2018-01-04T14:39:01.867Z,16.88
2018-01-04T14:40:02.299Z,16.88
2018-01-04T14:41:57.909Z,11.25
2018-01-04T14:42:58.322Z,11.25
2018-01-04T14:43:58.744Z,11.25
2018-01-04T14:44:59.175Z,11.25
2018-01-04T14:45:59.598Z,11.25
2018-01-04T14:47:00.024Z,11.25
2018-01-04T14:48:00.439Z,11.25
2018-01-04T14:49:00.863Z,11.25
2018-01-04T14:50:01.288Z,11.25
2018-01-04T14:51:01.737Z,11.25
2018-01-04T14:52:02.143Z,11.25
2018-01-04T14:53:02.558Z,11.25
2018-01-04T14:54:02.987Z,5.63
2018-01-04T14:55:03.410Z,5.63
2018-01-04T14:56:03.837Z,5.63
2018-01-04T14:57:04.257Z,5.63
2018-01-04T14:58:04.686Z,5.63
2018-01-04T14:59:05.106Z,5.63
2018-01-04T15:00:05.527Z,5.63
2018-01-04T15:01:05.951Z,5.63
2018-01-04T15:02:06.379Z,5.63
2018-01-04T15:03:06.800Z,5.63
2018-01-04T15:04:07.225Z,5.63
2018-01-04T15:05:07.664Z,0.00
2018-01-04T15:06:08.070Z,0.00
2018-01-04T15:07:08.513Z,0.00
2018-01-04T15:08:08.929Z,0.00
2018-01-04T15:11:22.060Z,0.00
2018-01-04T15:12:22.495Z,0.00
2018-01-04T15:15:50.190Z,0.00
2018-01-04T15:16:50.571Z,0.00
2018-01-04T15:18:45.176Z,0.00
2018-01-04T15:19:45.728Z,0.00
2018-01-04T15:21:48.716Z,0.00
2018-01-04T15:22:49.176Z,0.00
2018-01-04T15:23:49.590Z,0.00
2018-01-04T15:24:50.025Z,0.00
2018-01-04T15:25:50.424Z,0.00
2018-01-04T15:26:50.841Z,0.00
2018-01-04T15:27:51.264Z,0.00
2018-01-04T15:28:51.694Z,0.00
2018-01-04T15:29:52.128Z,0.00
2018-01-04T15:30:52.588Z,0.00
2018-01-04T15:31:52.961Z,0.00
2018-01-04T15:32:53.413Z,0.00
2018-01-04T15:36:04.277Z,0.00
2018-01-04T15:39:39.243Z,0.00
2018-01-04T15:40:39.671Z,0.00
2018-01-04T15:42:45.341Z,0.00
2018-01-04T15:43:45.770Z,0.00
2018-01-04T15:46:19.426Z,0.00
2018-01-04T15:47:19.840Z,0.00
2018-01-04T15:49:14.427Z,0.00
2018-01-04T15:50:14.854Z,0.00
2018-01-04T15:52:09.450Z,0.00
2018-01-04T15:53:09.864Z,0.00
2018-01-04T15:55:04.469Z,0.00
2018-01-04T15:56:04.864Z,0.00
2018-01-04T15:58:00.447Z,0.00
2018-01-04T15:59:00.872Z,0.00
2018-01-04T16:00:55.468Z,0.00
2018-01-04T16:01:55.883Z,0.00
2018-01-04T16:04:10.828Z,0.00
2018-01-04T16:10:32.166Z,0.00
2018-01-04T16:11:32.566Z,0.00
2018-01-04T16:13:27.148Z,0.00
2018-01-04T16:14:27.578Z,0.00
2018-01-04T16:16:22.205Z,0.00
2018-01-04T16:17:22.590Z,0.00
2018-01-04T16:19:17.183Z,0.00
2018-01-04T16:22:05.824Z,0.00
2018-01-04T16:23:06.236Z,0.00
2018-01-04T16:25:00.838Z,0.00
2018-01-04T16:26:01.283Z,0.00
2018-01-04T16:27:55.866Z,0.00
2018-01-04T16:30:29.397Z,0.00
2018-01-04T16:31:29.879Z,0.00
2018-01-04T16:33:39.274Z,0.00
2018-01-04T16:34:39.689Z,0.00
2018-01-04T16:36:34.283Z,0.00
2018-01-04T16:37:34.724Z,0.00
2018-01-04T16:38:35.138Z,0.00
2018-01-04T16:39:35.568Z,0.00
2018-01-04T16:40:35.990Z,0.00
2018-01-04T16:41:36.412Z,0.00
2018-01-04T16:42:36.832Z,0.00
2018-01-04T16:43:37.264Z,0.00
2018-01-04T16:44:37.683Z,0.00
2018-01-04T16:45:38.105Z,0.00
2018-01-04T16:46:38.530Z,0.00
2018-01-04T16:47:38.971Z,0.00
2018-01-04T16:48:39.432Z,0.00
2018-01-04T16:49:39.799Z,0.00
2018-01-04T16:50:40.223Z,0.00
2018-01-04T16:51:40.646Z,0.00
2018-01-04T16:52:41.076Z,0.00
2018-01-04T16:53:41.496Z,0.00
2018-01-04T16:54:41.918Z,0.00
2018-01-04T16:55:42.342Z,0.00
2018-01-04T16:56:42.780Z,0.00
2018-01-04T16:57:43.201Z,0.00
2018-01-04T16:58:43.613Z,0.00
2018-01-04T16:59:44.049Z,0.00
2018-01-04T17:00:44.466Z,0.00
2018-01-04T17:01:44.889Z,0.00
2018-01-04T17:02:45.312Z,0.00
2018-01-04T17:03:45.736Z,0.00
2018-01-04T17:04:46.157Z,0.00
2018-01-04T17:05:46.582Z,0.00
2018-01-04T17:06:47.009Z,0.00
2018-01-04T17:07:47.433Z,0.00
2018-01-04T17:08:47.928Z,0.00
2018-01-04T17:09:48.283Z,0.00
2018-01-04T17:10:48.708Z,0.00
2018-01-04T17:11:49.127Z,0.00
2018-01-04T17:12:49.544Z,0.00
2018-01-04T17:13:49.970Z,0.00
2018-01-04T17:14:50.394Z,0.00
2018-01-04T17:15:50.823Z,0.00
2018-01-04T17:16:51.242Z,0.00
2018-01-04T17:19:26.896Z,0.00
2018-01-04T17:20:27.304Z,0.00
2018-01-04T17:22:22.217Z,0.00
2018-01-04T17:23:22.308Z,0.00
2018-01-04T17:25:16.936Z,0.00
2018-01-04T17:26:17.333Z,0.00
2018-01-04T17:28:11.915Z,0.00
2018-01-04T17:29:12.356Z,0.00
2018-01-04T17:31:07.286Z,0.00
2018-01-04T17:32:07.387Z,0.00
2018-01-04T17:34:02.008Z,0.00
2018-01-04T17:35:02.416Z,0.00
2018-01-04T17:36:57.273Z,0.00
2018-01-04T17:37:57.426Z,0.00
2018-01-04T17:39:52.106Z,0.00
2018-01-04T17:40:52.472Z,0.00
2018-01-04T17:42:47.095Z,0.00
2018-01-04T17:43:47.478Z,0.00
2018-01-04T17:45:42.092Z,0.00
2018-01-04T17:46:42.517Z,0.00
2018-01-04T17:48:38.134Z,0.00
2018-01-04T17:49:38.534Z,0.00
2018-01-04T17:51:34.087Z,0.00
2018-01-04T17:52:33.537Z,0.00
2018-01-04T17:54:28.233Z,0.00
2018-01-04T17:55:28.571Z,0.00
2018-01-04T17:57:25.154Z,0.00
2018-01-04T17:58:23.595Z,0.00
2018-01-04T18:00:18.200Z,0.00
2018-01-04T18:01:18.624Z,0.00
2018-01-04T18:03:13.261Z,0.00
2018-01-04T18:04:14.436Z,0.00
2018-01-04T18:06:08.241Z,0.00
2018-01-04T18:07:08.671Z,0.00
2018-01-04T18:09:04.417Z,0.00
2018-01-04T18:10:04.664Z,0.00
2018-01-04T18:11:59.519Z,0.00
2018-01-04T18:12:59.737Z,0.00
2018-01-04T18:14:54.304Z,0.00
2018-01-04T18:15:54.708Z,0.00
2018-01-04T18:17:49.608Z,0.00
2018-01-04T18:18:49.738Z,0.00
2018-01-04T18:20:45.318Z,0.00
2018-01-04T18:21:45.747Z,0.00
2018-01-04T18:23:40.358Z,0.00
2018-01-04T18:24:40.766Z,0.00
2018-01-04T18:26:36.344Z,0.00
2018-01-04T18:27:36.766Z,0.00
2018-01-04T18:29:31.420Z,0.00
2018-01-04T18:30:31.781Z,0.00
2018-01-04T18:32:26.364Z,0.00
2018-01-04T18:33:26.800Z,0.00
2018-01-04T18:35:21.459Z,0.00
2018-01-04T18:36:21.808Z,0.00
2018-01-04T18:38:16.868Z,0.00
2018-01-04T18:39:16.817Z,0.00
2018-01-04T18:41:11.456Z,0.00
2018-01-04T18:42:11.853Z,0.00
2018-01-04T18:44:06.799Z,0.00
2018-01-04T18:45:06.847Z,0.00
2018-01-04T18:47:01.666Z,0.00
2018-01-04T18:48:01.854Z,0.00
2018-01-04T18:49:58.119Z,0.00
2018-01-04T18:50:56.914Z,0.00
2018-01-04T18:52:51.747Z,0.00
2018-01-04T18:53:51.957Z,0.00
2018-01-04T18:55:46.580Z,0.00
2018-01-04T18:56:46.986Z,0.00
2018-01-04T18:58:42.620Z,0.00
2018-01-04T18:59:42.984Z,0.00
2018-01-04T19:03:38.008Z,0.00
2018-01-04T19:04:38.387Z,0.00
2018-01-04T19:06:33.244Z,0.00
2018-01-04T19:07:33.443Z,0.00
2018-01-04T19:09:28.423Z,0.00
2018-01-04T19:10:28.454Z,0.00
2018-01-04T19:12:24.340Z,0.00
2018-01-04T19:13:24.453Z,0.00
2018-01-04T19:15:19.054Z,0.00
2018-01-04T19:16:19.470Z,0.00
2018-01-04T19:18:15.031Z,0.00
2018-01-04T19:19:15.476Z,0.00
2018-01-04T19:21:10.073Z,0.00
2018-01-04T19:24:32.926Z,0.00
2018-01-04T19:27:06.160Z,0.00
2018-01-04T19:28:06.582Z,0.00
2018-01-04T19:31:08.222Z,0.00
2018-01-04T19:32:08.633Z,0.00
2018-01-04T19:34:03.604Z,0.00
2018-01-04T19:38:49.947Z,0.00
2018-01-04T19:39:50.348Z,0.00
2018-01-04T19:41:45.931Z,0.00
2018-01-04T19:42:46.335Z,0.00
2018-01-04T19:44:40.929Z,0.00
2018-01-04T19:45:41.360Z,0.00
2018-01-04T19:47:39.924Z,0.00
2018-01-04T19:48:40.326Z,0.00
2018-01-04T19:49:40.752Z,0.00
2018-01-04T19:50:41.282Z,0.00
2018-01-04T19:51:41.589Z,0.00
2018-01-04T19:52:42.019Z,0.00
2018-01-04T19:53:42.438Z,0.00
2018-01-04T19:54:42.862Z,0.00
2018-01-04T19:55:43.309Z,0.00
2018-01-04T19:56:43.709Z,0.00
2018-01-04T19:57:44.131Z,0.00
2018-01-04T19:58:44.552Z,0.00
2018-01-04T19:59:44.984Z,0.00
2018-01-04T20:00:45.402Z,0.00
2018-01-04T20:01:45.824Z,0.00
2018-01-04T20:02:46.245Z,0.00
2018-01-04T20:03:46.673Z,0.00
2018-01-04T20:04:47.093Z,0.00
2018-01-04T20:05:47.518Z,0.00
2018-01-04T20:06:47.940Z,0.00
2018-01-04T20:07:48.361Z,0.00
2018-01-04T20:08:48.789Z,0.00
2018-01-04T20:09:49.217Z,0.00
2018-01-04T20:12:22.760Z,0.00
2018-01-04T20:13:23.166Z,0.00
2018-01-04T20:15:17.737Z,0.00
2018-01-04T20:16:18.166Z,0.00
2018-01-04T20:17:18.591Z,0.00
2018-01-04T20:18:19.029Z,0.00
2018-01-04T20:19:19.438Z,0.00
2018-01-04T20:20:19.862Z,0.00
2018-01-04T20:21:20.275Z,0.00
2018-01-04T20:22:20.702Z,0.00
2018-01-04T20:23:21.132Z,0.00
2018-01-04T20:24:21.545Z,0.00
2018-01-04T20:25:21.972Z,0.00
2018-01-04T20:26:22.441Z,0.00
2018-01-04T20:27:29.988Z,0.00
2018-01-04T20:29:17.409Z,0.00
2018-01-04T20:30:17.822Z,0.00
2018-01-04T20:34:09.499Z,0.00
2018-01-04T20:38:48.550Z,0.00
2018-01-04T20:39:48.943Z,0.00
2018-01-04T20:40:49.376Z,0.00
2018-01-04T20:43:22.922Z,0.00
2018-01-04T20:44:23.343Z,0.00
2018-01-04T20:46:17.937Z,0.00
2018-01-04T20:47:18.348Z,0.00
2018-01-04T20:49:12.941Z,0.00
2018-01-04T20:53:24.950Z,0.00
2018-01-04T20:54:25.293Z,0.00
2018-01-04T20:55:25.713Z,0.00
2018-01-04T20:56:26.144Z,0.00
2018-01-04T20:57:26.569Z,0.00
2018-01-04T20:58:26.982Z,0.00
2018-01-04T20:59:27.484Z,0.00
2018-01-04T21:00:27.831Z,0.00
2018-01-04T21:01:28.244Z,0.00
2018-01-04T21:02:28.674Z,0.00
2018-01-04T21:03:29.145Z,0.00
2018-01-04T21:04:29.514Z,0.00
2018-01-04T21:05:29.940Z,0.00
2018-01-04T21:06:30.359Z,0.00
2018-01-04T21:07:30.781Z,0.00
2018-01-04T21:08:31.209Z,0.00
2018-01-04T21:09:31.671Z,0.00
2018-01-04T21:10:32.053Z,0.00
2018-01-04T21:11:32.473Z,0.00
2018-01-04T21:12:32.896Z,0.00
2018-01-04T21:13:33.316Z,0.00
2018-01-04T21:14:33.740Z,0.00
2018-01-04T21:15:34.164Z,0.00
2018-01-04T21:16:34.584Z,0.00
2018-01-04T21:17:35.008Z,0.00
2018-01-04T21:18:35.432Z,0.00
2018-01-04T21:19:35.854Z,0.00
2018-01-04T21:20:36.285Z,0.00
2018-01-04T21:21:36.698Z,0.00
2018-01-04T21:22:37.118Z,0.00
2018-01-04T21:23:37.557Z,0.00
2018-01-04T21:24:37.967Z,0.00
2018-01-04T21:25:38.392Z,0.00
2018-01-04T21:26:38.811Z,0.00
2018-01-04T21:27:39.235Z,0.00
2018-01-04T21:28:39.662Z,0.00
2018-01-04T21:29:40.079Z,0.00
2018-01-04T21:30:40.514Z,0.00
2018-01-04T21:31:40.938Z,0.00
2018-01-04T21:32:41.346Z,0.00
2018-01-04T21:33:41.772Z,0.00
2018-01-04T21:34:42.199Z,0.00
2018-01-04T21:35:42.619Z,0.00
2018-01-04T21:36:43.038Z,0.00
2018-01-04T21:37:43.474Z,0.00
2018-01-04T21:38:43.881Z,0.00
2018-01-04T21:39:44.306Z,0.00
2018-01-04T21:40:44.736Z,0.00
2018-01-04T21:41:45.156Z,0.00
2018-01-04T21:42:45.570Z,0.00
2018-01-04T21:43:46.014Z,0.00
2018-01-04T21:44:46.437Z,0.00
2018-01-04T21:45:46.849Z,0.00
2018-01-04T21:46:47.258Z,0.00
2018-01-04T21:47:47.684Z,0.00
2018-01-04T21:48:48.109Z,0.00
2018-01-04T21:49:48.530Z,0.00
2018-01-04T21:50:48.958Z,0.00
2018-01-04T21:51:49.375Z,0.00
2018-01-04T21:52:49.796Z,0.00
2018-01-04T21:53:50.224Z,0.00
2018-01-04T21:56:23.781Z,0.00
2018-01-04T21:57:24.238Z,0.00
2018-01-04T21:59:18.778Z,0.00
2018-01-04T22:03:38.725Z,0.00
2018-01-04T22:04:39.143Z,0.00
2018-01-04T22:06:34.724Z,0.00
2018-01-04T22:07:35.156Z,0.00
2018-01-04T22:09:30.727Z,0.00
2018-01-04T22:10:31.148Z,0.00
2018-01-04T22:12:25.732Z,0.00
2018-01-04T22:13:26.150Z,0.00
2018-01-04T22:15:21.725Z,0.00
2018-01-04T22:16:22.132Z,0.00
2018-01-04T22:18:16.719Z,0.00
2018-01-04T22:19:17.136Z,0.00
2018-01-04T22:22:47.249Z,0.00
2018-01-04T22:23:47.677Z,0.00
2018-01-04T22:25:42.266Z,0.00
2018-01-04T22:26:42.681Z,0.00
2018-01-04T22:28:37.278Z,0.00
2018-01-04T22:29:37.688Z,0.00
2018-01-04T22:31:32.285Z,0.00
2018-01-04T22:32:32.717Z,0.00
2018-01-04T22:34:53.089Z,0.00
2018-01-04T22:35:53.506Z,0.00
2018-01-04T22:37:48.080Z,0.00
2018-01-04T22:38:48.503Z,0.00
2018-01-04T22:40:43.100Z,0.00
2018-01-04T22:41:43.513Z,0.00
2018-01-04T22:43:38.097Z,0.00
2018-01-04T22:44:38.515Z,0.00
2018-01-04T22:46:33.110Z,0.00
2018-01-04T22:47:33.518Z,0.00
2018-01-04T22:48:33.944Z,0.00
2018-01-04T22:49:34.364Z,0.00
2018-01-04T22:50:34.817Z,0.00
2018-01-04T22:51:35.221Z,0.00
2018-01-04T22:52:35.656Z,0.00
2018-01-04T22:53:36.068Z,0.00
2018-01-04T22:54:36.502Z,0.00
2018-01-04T22:55:36.904Z,0.00
2018-01-04T22:56:37.342Z,0.00
2018-01-04T22:58:31.946Z,0.00
2018-01-04T23:01:05.709Z,0.00
2018-01-04T23:02:05.886Z,0.00
2018-01-04T23:04:00.465Z,0.00
2018-01-04T23:05:00.897Z,0.00
2018-01-04T23:08:30.572Z,0.00
2018-01-04T23:09:30.976Z,0.00
2018-01-04T23:11:25.577Z,0.00
2018-01-04T23:12:25.978Z,0.00
2018-01-04T23:14:20.549Z,0.00
2018-01-04T23:15:20.978Z,0.00
2018-01-04T23:17:15.574Z,0.00
2018-01-04T23:18:15.991Z,0.00
2018-01-04T23:22:46.122Z,0.00
2018-01-04T23:23:46.515Z,0.00
2018-01-04T23:25:44.108Z,0.00
2018-01-04T23:26:44.501Z,0.00
2018-01-04T23:27:44.930Z,0.00
2018-01-04T23:28:45.384Z,0.00
2018-01-04T23:29:45.770Z,0.00
2018-01-04T23:30:46.204Z,0.00
2018-01-04T23:31:46.619Z,0.00
2018-01-04T23:32:47.048Z,0.00
2018-01-04T23:33:47.464Z,0.00
2018-01-04T23:34:47.888Z,0.00
2018-01-04T23:35:48.311Z,0.00
2018-01-04T23:36:48.740Z,0.00
2018-01-04T23:37:49.165Z,0.00
2018-01-04T23:38:49.590Z,0.00
2018-01-04T23:39:50.009Z,0.00
2018-01-04T23:40:50.433Z,0.00
2018-01-04T23:41:50.861Z,0.00
2018-01-04T23:42:51.280Z,0.00
2018-01-04T23:43:51.705Z,0.00
2018-01-04T23:44:52.124Z,0.00
2018-01-04T23:45:52.548Z,0.00
2018-01-04T23:46:52.974Z,0.00
2018-01-04T23:47:53.396Z,0.00
2018-01-04T23:48:53.819Z,0.00
2018-01-04T23:49:54.256Z,0.00
2018-01-04T23:50:54.675Z,0.00
2018-01-04T23:51:55.090Z,0.00
2018-01-04T23:52:55.512Z,0.00
2018-01-04T23:53:55.938Z,0.00
2018-01-04T23:54:56.368Z,0.00
2018-01-04T23:55:56.793Z,0.00
2018-01-04T23:56:57.210Z,0.00
2018-01-04T23:57:57.630Z,0.00
2018-01-04T23:58:58.055Z,0.00
2018-01-04T23:59:58.486Z,0.00
